createdAt,value
2018-07-13T00:00:12.621Z,60.07
2018-07-13T00:02:42.169Z,59.86
2018-07-13T00:05:10.977Z,60.63
2018-07-13T00:07:39.642Z,60.13
2018-07-13T00:10:08.541Z,60.66
2018-07-13T00:12:37.049Z,60.69
2018-07-13T00:15:09.974Z,60.61
2018-07-13T00:17:38.508Z,60.89
2018-07-13T00:20:07.592Z,61.15
2018-07-13T00:22:36.048Z,61.60
2018-07-13T00:25:05.327Z,61.83
2018-07-13T00:27:33.989Z,61.75
2018-07-13T00:30:02.464Z,61.72
2018-07-13T00:32:31.577Z,61.66
2018-07-13T00:35:00.213Z,62.15
2018-07-13T00:37:28.733Z,62.01
2018-07-13T00:39:57.952Z,62.22
2018-07-13T00:42:26.773Z,62.72
2018-07-13T00:44:55.261Z,63.09
2018-07-13T00:47:23.997Z,63.22
2018-07-13T00:49:52.821Z,63.44
2018-07-13T00:52:21.295Z,63.57
2018-07-13T00:54:49.829Z,62.96
2018-07-13T00:57:18.574Z,63.17
2018-07-13T00:59:47.321Z,63.04
2018-07-13T01:02:15.921Z,63.55
2018-07-13T01:04:44.633Z,63.46
2018-07-13T01:07:13.343Z,63.33
2018-07-13T01:09:42.182Z,63.72
2018-07-13T01:12:10.637Z,63.84
2018-07-13T01:14:39.369Z,63.92
2018-07-13T01:17:08.233Z,63.51
2018-07-13T01:19:36.709Z,64.30
2018-07-13T01:22:05.604Z,64.01
2018-07-13T01:24:34.290Z,64.18
2018-07-13T01:27:02.737Z,64.46
2018-07-13T01:29:31.714Z,64.96
2018-07-13T01:32:00.485Z,64.84
2018-07-13T01:34:28.937Z,65.32
2018-07-13T01:36:57.666Z,65.16
2018-07-13T01:39:26.125Z,65.45
2018-07-13T01:41:54.578Z,65.61
2018-07-13T01:44:23.073Z,65.76
2018-07-13T01:46:51.541Z,66.15
2018-07-13T01:49:20.354Z,66.00
2018-07-13T01:51:48.837Z,66.30
2018-07-13T01:54:17.573Z,66.44
2018-07-13T01:56:46.145Z,66.38
2018-07-13T01:59:14.646Z,66.70
2018-07-13T02:01:43.109Z,66.37
2018-07-13T02:04:11.582Z,66.52
2018-07-13T02:06:40.278Z,66.36
2018-07-13T02:09:09.686Z,66.19
2018-07-13T02:11:38.154Z,66.18
2018-07-13T02:14:07.117Z,66.29
2018-07-13T02:16:35.849Z,65.82
2018-07-13T02:19:04.321Z,65.79
2018-07-13T02:21:32.819Z,65.76
2018-07-13T02:24:01.822Z,66.14
2018-07-13T02:26:30.342Z,65.88
2018-07-13T02:28:58.810Z,66.15
2018-07-13T02:31:28.563Z,66.38
2018-07-13T02:33:57.180Z,66.45
2018-07-13T02:36:25.673Z,66.40
2018-07-13T02:38:54.817Z,66.52
2018-07-13T02:41:23.675Z,66.15
2018-07-13T02:43:52.353Z,66.58
2018-07-13T02:46:20.909Z,66.51
2018-07-13T02:48:49.784Z,66.40
2018-07-13T02:51:18.249Z,66.23
2018-07-13T02:53:46.678Z,66.22
2018-07-13T02:56:15.465Z,65.65
2018-07-13T02:58:44.246Z,65.44
2018-07-13T03:01:13.009Z,65.22
2018-07-13T03:03:41.495Z,65.27
2018-07-13T03:06:10.082Z,65.41
2018-07-13T03:08:38.755Z,65.33
2018-07-13T03:11:07.578Z,64.81
2018-07-13T03:13:36.809Z,65.03
2018-07-13T03:16:06.038Z,64.80
2018-07-13T03:18:34.681Z,64.63
2018-07-13T03:21:03.189Z,64.59
2018-07-13T03:23:32.104Z,64.33
2018-07-13T03:26:00.588Z,63.72
2018-07-13T03:28:29.110Z,63.57
2018-07-13T03:30:58.650Z,63.62
2018-07-13T03:33:27.305Z,63.54
2018-07-13T03:35:55.803Z,63.80
2018-07-13T03:38:24.888Z,63.20
2018-07-13T03:40:54.386Z,62.97
2018-07-13T03:43:22.873Z,62.98
2018-07-13T03:45:51.861Z,63.21
2018-07-13T03:48:20.685Z,63.16
2018-07-13T03:50:49.145Z,62.87
2018-07-13T03:53:17.858Z,63.13
2018-07-13T03:55:46.708Z,62.73
2018-07-13T03:58:15.258Z,62.56
2018-07-13T04:00:44.004Z,62.45
2018-07-13T04:03:13.006Z,61.90
2018-07-13T04:05:41.775Z,61.96
2018-07-13T04:08:10.581Z,61.71
2018-07-13T04:10:46.037Z,62.12
2018-07-13T04:13:14.709Z,62.04
2018-07-13T04:15:43.796Z,62.00
2018-07-13T04:18:18.665Z,61.75
2018-07-13T04:20:47.614Z,61.53
2018-07-13T04:23:16.514Z,61.76
2018-07-13T04:25:45.063Z,61.55
2018-07-13T04:28:14.702Z,61.54
2018-07-13T04:30:43.932Z,61.45
2018-07-13T04:33:12.835Z,61.63
2018-07-13T04:35:41.341Z,61.13
2018-07-13T04:38:10.758Z,61.24
2018-07-13T04:40:39.262Z,61.15
2018-07-13T04:43:08.098Z,60.96
2018-07-13T04:45:37.442Z,60.78
2018-07-13T04:48:06.209Z,60.65
2018-07-13T04:50:35.012Z,60.23
2018-07-13T04:53:04.420Z,60.24
2018-07-13T04:55:33.942Z,60.03
2018-07-13T04:58:02.478Z,59.93
2018-07-13T05:00:31.466Z,59.94
2018-07-13T05:03:00.412Z,59.73
2018-07-13T05:05:28.938Z,59.59
2018-07-13T05:07:57.863Z,59.19
2018-07-13T05:10:26.629Z,58.89
2018-07-13T05:12:55.286Z,58.43
2018-07-13T05:15:24.133Z,58.34
2018-07-13T05:17:52.629Z,58.13
2018-07-13T05:20:21.420Z,57.94
2018-07-13T05:22:50.508Z,57.54
2018-07-13T05:25:19.077Z,57.83
2018-07-13T05:27:47.771Z,57.54
2018-07-13T05:30:16.917Z,57.70
2018-07-13T05:32:45.481Z,57.25
2018-07-13T05:35:14.014Z,57.37
2018-07-13T05:37:43.256Z,56.96
2018-07-13T05:40:11.833Z,57.30
2018-07-13T05:42:40.540Z,57.29
2018-07-13T05:45:09.495Z,57.25
2018-07-13T05:47:38.499Z,57.02
2018-07-13T05:50:07.145Z,56.88
2018-07-13T05:52:35.949Z,56.60
2018-07-13T05:55:04.898Z,56.19
2018-07-13T05:57:33.438Z,55.94
2018-07-13T06:00:02.309Z,55.82
2018-07-13T06:02:31.537Z,56.02
2018-07-13T06:05:00.552Z,55.24
2018-07-13T06:07:29.701Z,55.20
2018-07-13T06:09:58.309Z,54.72
2018-07-13T06:12:27.181Z,54.38
2018-07-13T06:14:56.076Z,54.09
2018-07-13T06:17:24.557Z,54.10
2018-07-13T06:19:53.441Z,53.87
2018-07-13T06:22:22.025Z,54.18
2018-07-13T06:24:50.537Z,53.34
2018-07-13T06:27:19.196Z,53.01
2018-07-13T06:29:47.806Z,53.23
2018-07-13T06:32:16.277Z,52.53
2018-07-13T06:34:45.050Z,52.06
2018-07-13T06:37:14.746Z,51.60
2018-07-13T06:39:44.065Z,51.13
2018-07-13T06:42:13.301Z,50.72
2018-07-13T06:44:42.097Z,50.25
2018-07-13T06:47:10.674Z,50.11
2018-07-13T06:49:39.257Z,49.23
2018-07-13T06:52:07.893Z,49.26
2018-07-13T06:54:36.659Z,48.49
2018-07-13T06:57:05.919Z,48.37
2018-07-13T06:59:34.773Z,47.85
2018-07-13T07:02:03.470Z,47.66
2018-07-13T07:04:34.699Z,47.33
2018-07-13T07:07:05.947Z,47.30
2018-07-13T07:09:34.665Z,47.84
2018-07-13T07:13:13.676Z,47.70
2018-07-13T07:15:42.465Z,47.13
2018-07-13T07:18:11.692Z,47.57
2018-07-13T07:20:40.449Z,47.06
2018-07-13T07:23:08.950Z,45.87
2018-07-13T07:25:37.442Z,45.56
2018-07-13T07:28:05.929Z,44.11
2018-07-13T07:30:34.467Z,45.29
2018-07-13T07:33:02.958Z,44.74
2018-07-13T07:35:31.469Z,44.43
2018-07-13T07:38:00.137Z,44.33
2018-07-13T07:40:28.671Z,44.14
2018-07-13T07:42:57.783Z,44.56
2018-07-13T07:45:26.597Z,43.46
2018-07-13T07:47:55.295Z,42.95
2018-07-13T07:50:24.006Z,40.89
2018-07-13T07:52:52.878Z,39.58
2018-07-13T07:55:21.590Z,39.30
2018-07-13T07:57:50.451Z,38.62
2018-07-13T08:00:18.945Z,37.56
2018-07-13T08:02:47.883Z,36.59
2018-07-13T08:05:17.201Z,35.37
2018-07-13T08:07:45.654Z,35.30
2018-07-13T08:10:14.389Z,34.29
2018-07-13T08:12:44.289Z,34.19
2018-07-13T08:15:12.751Z,32.90
2018-07-13T08:17:41.469Z,32.72
2018-07-13T08:20:10.442Z,32.07
2018-07-13T08:22:42.027Z,31.88
2018-07-13T08:25:13.717Z,32.10
2018-07-13T08:27:44.109Z,32.44
2018-07-13T08:30:17.665Z,31.38
2018-07-13T08:32:46.382Z,31.16
2018-07-13T08:35:14.934Z,30.00
2018-07-13T08:37:43.705Z,30.28
2018-07-13T08:40:12.782Z,30.23
2018-07-13T08:42:42.194Z,29.52
2018-07-13T08:45:11.509Z,29.88
2018-07-13T08:47:40.169Z,29.25
2018-07-13T08:50:09.085Z,29.44
2018-07-13T08:52:38.219Z,29.25
2018-07-13T08:55:08.486Z,28.00
2018-07-13T08:57:37.069Z,27.77
2018-07-13T09:00:06.115Z,28.59
2018-07-13T09:02:35.270Z,27.50
2018-07-13T09:05:03.802Z,28.03
2018-07-13T09:07:34.533Z,27.16
2018-07-13T09:10:03.367Z,26.90
2018-07-13T09:12:31.860Z,27.00
2018-07-13T09:15:00.647Z,27.16
2018-07-13T09:17:29.360Z,26.71
2018-07-13T09:19:58.365Z,26.70
2018-07-13T09:22:27.363Z,26.67
2018-07-13T09:24:55.889Z,27.18
2018-07-13T09:27:24.717Z,26.57
2018-07-13T09:29:53.601Z,26.26
2018-07-13T09:32:22.037Z,25.41
2018-07-13T09:34:50.526Z,25.92
2018-07-13T09:37:20.322Z,26.14
2018-07-13T09:39:49.090Z,25.10
2018-07-13T09:42:17.721Z,25.68
2018-07-13T09:44:46.921Z,25.45
2018-07-13T09:47:16.099Z,25.51
2018-07-13T09:49:44.565Z,25.06
2018-07-13T09:52:14.819Z,24.71
2018-07-13T09:54:43.616Z,25.08
2018-07-13T09:57:13.003Z,24.44
2018-07-13T09:59:42.419Z,24.67
2018-07-13T10:02:11.275Z,24.20
2018-07-13T10:04:39.837Z,23.23
2018-07-13T10:07:09.596Z,23.74
2018-07-13T10:09:38.286Z,24.03
2018-07-13T10:12:07.210Z,24.24
2018-07-13T10:14:36.159Z,23.22
2018-07-13T10:17:04.928Z,22.80
2018-07-13T10:19:33.930Z,22.52
2018-07-13T10:22:02.713Z,23.04
2018-07-13T10:24:32.375Z,22.76
2018-07-13T10:27:01.217Z,23.87
2018-07-13T10:29:33.146Z,23.08
2018-07-13T10:32:02.880Z,23.68
2018-07-13T10:34:32.203Z,23.93
2018-07-13T10:37:03.190Z,23.90
2018-07-13T10:39:32.534Z,22.83
2018-07-13T10:42:01.202Z,23.26
2018-07-13T10:44:30.036Z,23.56
2018-07-13T10:46:58.590Z,24.96
2018-07-13T10:49:27.325Z,25.04
2018-07-13T10:51:56.792Z,25.03
2018-07-13T10:54:25.424Z,23.95
2018-07-13T10:56:53.884Z,24.66
2018-07-13T10:59:22.945Z,24.55
2018-07-13T11:01:51.682Z,23.86
2018-07-13T11:04:20.349Z,23.21
2018-07-13T11:06:48.849Z,23.25
2018-07-13T11:09:17.710Z,23.78
2018-07-13T11:11:46.990Z,24.44
2018-07-13T11:14:15.730Z,23.77
2018-07-13T11:16:44.363Z,22.88
2018-07-13T11:19:13.094Z,24.36
2018-07-13T11:21:42.955Z,24.25
2018-07-13T11:24:11.763Z,23.75
2018-07-13T11:26:40.453Z,23.76
2018-07-13T11:29:09.231Z,24.09
2018-07-13T11:31:38.352Z,24.06
2018-07-13T11:34:07.045Z,23.23
2018-07-13T11:36:36.197Z,24.01
2018-07-13T11:39:05.583Z,24.74
2018-07-13T11:41:34.294Z,23.48
2018-07-13T11:44:02.986Z,23.72
2018-07-13T11:46:32.253Z,23.21
2018-07-13T11:49:01.269Z,23.85
2018-07-13T11:51:30.179Z,23.06
2018-07-13T11:53:58.831Z,23.01
2018-07-13T11:56:27.828Z,22.65
2018-07-13T11:58:56.536Z,23.42
2018-07-13T12:01:25.001Z,22.33
2018-07-13T12:03:53.702Z,21.55
2018-07-13T12:06:22.670Z,21.06
2018-07-13T12:08:51.149Z,20.89
2018-07-13T12:11:19.798Z,21.81
2018-07-13T12:13:49.049Z,21.57
2018-07-13T12:16:17.495Z,22.66
2018-07-13T12:18:46.242Z,23.03
2018-07-13T12:21:14.998Z,23.10
2018-07-13T12:23:43.463Z,23.61
2018-07-13T12:26:12.621Z,24.69
2018-07-13T12:28:41.685Z,24.37
2018-07-13T12:31:10.137Z,24.10
2018-07-13T12:33:38.822Z,25.22
2018-07-13T12:36:07.717Z,25.72
2018-07-13T12:38:36.159Z,24.67
2018-07-13T12:41:05.060Z,24.25
2018-07-13T12:43:34.689Z,24.40
2018-07-13T12:46:03.162Z,24.58
2018-07-13T12:48:31.752Z,24.85
2018-07-13T12:51:00.445Z,24.70
2018-07-13T12:53:29.247Z,23.98
2018-07-13T12:55:57.693Z,24.08
2018-07-13T12:58:27.362Z,23.20
2018-07-13T13:00:56.232Z,22.46
2018-07-13T13:03:24.750Z,22.35
2018-07-13T13:05:53.575Z,21.77
2018-07-13T13:08:22.298Z,22.02
2018-07-13T13:10:51.000Z,22.69
2018-07-13T13:13:19.869Z,22.48
2018-07-13T13:15:48.993Z,22.94
2018-07-13T13:18:17.690Z,22.71
2018-07-13T13:20:46.646Z,23.29
2018-07-13T13:23:15.087Z,23.02
2018-07-13T13:25:45.110Z,22.30
2018-07-13T13:28:14.434Z,21.81
2018-07-13T13:30:43.545Z,22.06
2018-07-13T13:33:11.971Z,21.66
2018-07-13T13:35:42.072Z,21.13
2018-07-13T13:38:10.522Z,21.19
2018-07-13T13:40:39.067Z,21.36
2018-07-13T13:43:08.091Z,20.95
2018-07-13T13:45:36.573Z,21.18
2018-07-13T13:48:05.093Z,21.39
2018-07-13T13:50:34.153Z,21.35
2018-07-13T13:53:02.596Z,21.19
2018-07-13T13:55:31.048Z,21.58
2018-07-13T13:57:59.888Z,20.98
2018-07-13T14:00:28.853Z,20.62
2018-07-13T14:02:57.307Z,20.62
2018-07-13T14:05:26.322Z,19.94
2018-07-13T14:07:55.032Z,20.26
2018-07-13T14:10:23.465Z,20.17
2018-07-13T14:12:51.966Z,19.85
2018-07-13T14:15:20.808Z,19.97
2018-07-13T14:17:49.506Z,19.85
2018-07-13T14:20:17.995Z,19.73
2018-07-13T14:22:46.846Z,19.66
2018-07-13T14:25:15.286Z,19.89
2018-07-13T14:27:44.117Z,18.91
2018-07-13T14:30:12.987Z,19.26
2018-07-13T14:32:42.753Z,19.90
2018-07-13T14:35:11.705Z,19.73
2018-07-13T14:37:40.131Z,19.93
2018-07-13T14:40:08.867Z,19.98
2018-07-13T14:42:37.769Z,20.15
2018-07-13T14:45:06.289Z,19.16
2018-07-13T14:47:34.957Z,19.78
2018-07-13T14:50:03.797Z,19.82
2018-07-13T14:52:32.232Z,19.88
2018-07-13T14:55:00.965Z,19.67
2018-07-13T14:57:29.946Z,19.67
2018-07-13T14:59:58.479Z,19.92
2018-07-13T15:02:27.461Z,19.60
2018-07-13T15:04:57.140Z,18.68
2018-07-13T15:07:25.585Z,19.37
2018-07-13T15:09:54.025Z,18.97
2018-07-13T15:12:22.939Z,19.35
2018-07-13T15:14:51.469Z,18.42
2018-07-13T15:17:19.957Z,19.16
2018-07-13T15:19:49.238Z,18.58
2018-07-13T15:22:17.673Z,18.38
2018-07-13T15:24:46.668Z,18.71
2018-07-13T15:27:15.724Z,18.25
2018-07-13T15:29:44.165Z,18.57
2018-07-13T15:32:12.660Z,18.51
2018-07-13T15:34:41.693Z,18.86
2018-07-13T15:37:10.160Z,18.27
2018-07-13T15:39:38.598Z,19.04
2018-07-13T15:42:07.919Z,19.02
2018-07-13T15:44:36.754Z,19.15
2018-07-13T15:47:05.658Z,18.82
2018-07-13T15:49:34.709Z,19.16
2018-07-13T15:52:03.540Z,18.71
2018-07-13T15:54:32.009Z,19.21
2018-07-13T15:57:01.086Z,19.40
2018-07-13T15:59:29.832Z,18.73
2018-07-13T16:01:58.549Z,18.65
2018-07-13T16:04:27.362Z,19.05
2018-07-13T16:06:55.826Z,19.24
2018-07-13T16:09:24.601Z,18.67
2018-07-13T16:11:53.504Z,18.39
2018-07-13T16:14:21.956Z,18.70
2018-07-13T16:16:50.973Z,19.32
2018-07-13T16:19:19.557Z,18.86
2018-07-13T16:21:48.212Z,18.84
2018-07-13T16:24:16.670Z,18.78
2018-07-13T16:26:45.594Z,19.16
2018-07-13T16:29:14.026Z,19.07
2018-07-13T16:31:42.731Z,19.44
2018-07-13T16:34:11.653Z,19.62
2018-07-13T16:36:40.622Z,19.97
2018-07-13T16:39:09.157Z,20.59
2018-07-13T16:41:38.337Z,20.70
2018-07-13T16:44:07.131Z,20.96
2018-07-13T16:46:35.610Z,20.91
2018-07-13T16:49:04.414Z,20.71
2018-07-13T16:51:32.870Z,21.40
2018-07-13T16:54:01.309Z,21.37
2018-07-13T16:56:30.228Z,20.82
2018-07-13T16:59:00.039Z,20.84
2018-07-13T17:01:29.175Z,21.30
2018-07-13T17:03:58.145Z,20.92
2018-07-13T17:06:26.959Z,21.59
2018-07-13T17:08:56.076Z,22.16
2018-07-13T17:11:24.809Z,22.80
2018-07-13T17:13:53.229Z,23.45
2018-07-13T17:16:21.865Z,24.32
2018-07-13T17:18:50.861Z,24.20
2018-07-13T17:21:19.318Z,25.21
2018-07-13T17:23:47.907Z,25.23
2018-07-13T17:26:16.968Z,25.98
2018-07-13T17:28:45.382Z,27.13
2018-07-13T17:31:13.857Z,27.36
2018-07-13T17:33:43.818Z,27.13
2018-07-13T17:36:12.599Z,27.88
2018-07-13T17:38:41.032Z,27.98
2018-07-13T17:41:09.958Z,28.32
2018-07-13T17:43:38.487Z,28.60
2018-07-13T17:46:07.158Z,28.80
2018-07-13T17:48:36.042Z,29.19
2018-07-13T17:51:04.488Z,29.28
2018-07-13T17:53:32.977Z,29.76
2018-07-13T17:56:01.973Z,30.19
2018-07-13T17:58:30.413Z,29.95
2018-07-13T18:00:58.994Z,30.77
2018-07-13T18:03:28.197Z,31.19
2018-07-13T18:05:57.121Z,31.42
2018-07-13T18:08:25.926Z,31.14
2018-07-13T18:10:54.695Z,31.85
2018-07-13T18:13:23.529Z,32.00
2018-07-13T18:15:51.988Z,32.07
2018-07-13T18:18:21.058Z,31.89
2018-07-13T18:20:49.829Z,32.17
2018-07-13T18:23:18.852Z,32.78
2018-07-13T18:25:47.713Z,32.95
2018-07-13T18:28:16.333Z,32.66
2018-07-13T18:30:45.205Z,32.41
2018-07-13T18:33:14.095Z,33.02
2018-07-13T18:35:43.438Z,33.08
2018-07-13T18:38:12.490Z,33.02
2018-07-13T18:40:41.294Z,33.37
2018-07-13T18:43:10.086Z,33.18
2018-07-13T18:45:38.857Z,33.55
2018-07-13T18:48:07.753Z,33.43
2018-07-13T18:50:36.206Z,33.83
2018-07-13T18:53:05.388Z,33.78
2018-07-13T18:55:34.477Z,34.58
2018-07-13T18:58:02.917Z,34.70
2018-07-13T19:00:31.601Z,34.97
2018-07-13T19:03:00.477Z,34.94
2018-07-13T19:05:28.913Z,34.83
2018-07-13T19:07:57.949Z,35.14
2018-07-13T19:10:27.057Z,35.59
2018-07-13T19:12:55.501Z,35.19
2018-07-13T19:15:23.961Z,35.41
2018-07-13T19:17:52.742Z,36.13
2018-07-13T19:20:21.205Z,35.71
2018-07-13T19:22:49.716Z,36.41
2018-07-13T19:25:21.297Z,36.37
2018-07-13T19:27:50.172Z,36.63
2018-07-13T19:30:18.917Z,36.53
2018-07-13T19:32:47.380Z,36.72
2018-07-13T19:35:15.950Z,37.51
2018-07-13T19:37:44.653Z,37.27
2018-07-13T19:40:13.317Z,37.90
2018-07-13T19:42:41.851Z,37.82
2018-07-13T19:45:10.716Z,38.44
2018-07-13T19:47:39.337Z,38.77
2018-07-13T19:50:07.813Z,38.93
2018-07-13T19:52:36.887Z,39.11
2018-07-13T19:55:05.593Z,39.43
2018-07-13T19:57:34.057Z,39.60
2018-07-13T20:00:02.840Z,39.29
2018-07-13T20:02:31.653Z,39.52
2018-07-13T20:05:00.131Z,39.90
2018-07-13T20:07:28.874Z,40.67
2018-07-13T20:09:57.693Z,40.34
2018-07-13T20:12:26.341Z,40.99
2018-07-13T20:14:55.957Z,41.34
2018-07-13T20:17:24.991Z,41.30
2018-07-13T20:19:53.542Z,40.93
2018-07-13T20:22:22.006Z,41.59
2018-07-13T20:24:50.841Z,41.58
2018-07-13T20:27:19.313Z,41.67
2018-07-13T20:29:48.069Z,42.28
2018-07-13T20:32:17.212Z,42.13
2018-07-13T20:34:45.917Z,42.50
2018-07-13T20:37:14.642Z,42.70
2018-07-13T20:39:43.812Z,42.36
2018-07-13T20:42:12.354Z,43.13
2018-07-13T20:44:41.523Z,43.11
2018-07-13T20:47:10.004Z,42.91
2018-07-13T20:49:38.642Z,43.42
2018-07-13T20:52:07.363Z,43.05
2018-07-13T20:54:36.184Z,43.44
2018-07-13T20:57:04.685Z,43.77
2018-07-13T20:59:33.389Z,43.96
2018-07-13T21:02:01.937Z,43.53
2018-07-13T21:04:30.394Z,43.83
2018-07-13T21:06:59.161Z,43.83
2018-07-13T21:09:27.817Z,44.30
2018-07-13T21:11:56.307Z,44.44
2018-07-13T21:14:25.071Z,44.26
2018-07-13T21:16:53.518Z,44.24
2018-07-13T21:19:21.989Z,43.91
2018-07-13T21:21:50.976Z,44.35
2018-07-13T21:24:20.205Z,44.55
2018-07-13T21:26:49.237Z,44.46
2018-07-13T21:29:17.721Z,44.50
2018-07-13T21:31:46.500Z,44.52
2018-07-13T21:34:15.547Z,44.55
2018-07-13T21:36:44.057Z,45.23
2018-07-13T21:39:13.545Z,45.09
2018-07-13T21:41:42.575Z,45.52
2018-07-13T21:44:11.551Z,45.32
2018-07-13T21:46:40.425Z,45.71
2018-07-13T21:49:08.913Z,45.48
2018-07-13T21:51:37.679Z,46.06
2018-07-13T21:54:06.476Z,46.21
2018-07-13T21:56:34.946Z,45.90
2018-07-13T21:59:03.825Z,46.27
2018-07-13T22:01:32.531Z,46.46
2018-07-13T22:04:01.034Z,46.18
2018-07-13T22:06:30.281Z,46.42
2018-07-13T22:08:59.037Z,46.93
2018-07-13T22:11:27.519Z,47.12
2018-07-13T22:13:56.473Z,47.28
2018-07-13T22:16:25.830Z,47.03
2018-07-13T22:18:54.351Z,47.08
2018-07-13T22:21:22.877Z,47.30
2018-07-13T22:23:51.964Z,47.54
2018-07-13T22:26:20.440Z,47.76
2018-07-13T22:28:48.984Z,48.07
2018-07-13T22:31:17.681Z,47.96
2018-07-13T22:33:46.834Z,48.12
2018-07-13T22:36:16.134Z,48.27
2018-07-13T22:38:44.961Z,48.04
2018-07-13T22:41:14.353Z,48.57
2018-07-13T22:43:42.832Z,49.24
2018-07-13T22:46:11.409Z,49.57
2018-07-13T22:48:40.163Z,49.74
2018-07-13T22:51:08.715Z,49.58
2018-07-13T22:53:37.213Z,50.09
2018-07-13T22:56:06.165Z,50.28
2018-07-13T22:58:34.637Z,50.26
2018-07-13T23:01:03.739Z,50.80
2018-07-13T23:03:32.859Z,51.05
2018-07-13T23:06:02.641Z,51.32
2018-07-13T23:08:31.337Z,51.52
2018-07-13T23:11:00.297Z,51.59
2018-07-13T23:13:29.210Z,51.52
2018-07-13T23:15:58.769Z,51.35
2018-07-13T23:18:27.583Z,51.07
2018-07-13T23:20:56.456Z,51.03
2018-07-13T23:23:25.070Z,51.00
2018-07-13T23:25:53.577Z,50.92
2018-07-13T23:28:22.545Z,51.22
2018-07-13T23:30:51.199Z,51.19
2018-07-13T23:33:19.826Z,51.33
2018-07-13T23:35:49.211Z,51.15
2018-07-13T23:38:17.856Z,51.19
2018-07-13T23:40:46.336Z,51.37
2018-07-13T23:43:14.857Z,51.29
2018-07-13T23:45:44.069Z,51.44
2018-07-13T23:48:12.593Z,51.37
2018-07-13T23:50:41.085Z,51.13
2018-07-13T23:53:09.637Z,51.41
2018-07-13T23:55:38.368Z,51.22
2018-07-13T23:58:07.106Z,51.49
